createdAt,value
2017-10-18T00:01:37.185Z,8.53
2017-10-18T00:04:04.194Z,8.63
2017-10-18T00:06:30.505Z,10.30
2017-10-18T00:08:56.781Z,8.73
2017-10-18T00:11:23.814Z,8.87
2017-10-18T00:13:50.087Z,7.37
2017-10-18T00:16:17.106Z,7.50
2017-10-18T00:18:43.412Z,8.67
2017-10-18T00:21:09.720Z,8.13
2017-10-18T00:23:36.742Z,8.73
2017-10-18T00:26:03.007Z,8.60
2017-10-18T00:28:29.297Z,9.33
2017-10-18T00:30:55.598Z,9.00
2017-10-18T00:33:22.641Z,9.47
2017-10-18T00:35:49.704Z,9.27
2017-10-18T00:38:15.983Z,11.00
2017-10-18T00:40:42.310Z,11.00
2017-10-18T00:43:08.614Z,9.37
2017-10-18T00:45:34.985Z,10.13
2017-10-18T00:48:02.218Z,9.27
2017-10-18T00:50:28.521Z,9.10
2017-10-18T00:52:54.808Z,8.57
2017-10-18T00:55:21.053Z,9.27
2017-10-18T00:57:47.336Z,8.63
2017-10-18T01:00:14.613Z,8.03
2017-10-18T01:02:40.887Z,9.03
2017-10-18T01:05:07.191Z,7.50
2017-10-18T01:07:33.509Z,7.00
2017-10-18T01:10:00.522Z,9.60
2017-10-18T01:12:26.852Z,6.87
2017-10-18T01:14:53.158Z,8.70
2017-10-18T01:17:19.448Z,8.80
2017-10-18T01:19:47.254Z,8.23
2017-10-18T01:22:13.566Z,7.90
2017-10-18T01:24:39.823Z,7.77
2017-10-18T01:27:06.146Z,7.43
2017-10-18T01:29:33.157Z,10.20
2017-10-18T01:31:59.418Z,7.97
2017-10-18T01:34:25.718Z,8.03
2017-10-18T01:36:51.985Z,9.03
2017-10-18T01:39:18.282Z,9.83
2017-10-18T01:41:44.980Z,9.17
2017-10-18T01:44:11.301Z,9.17
2017-10-18T01:46:37.553Z,10.07
2017-10-18T01:49:03.857Z,8.93
2017-10-18T01:51:30.109Z,9.27
2017-10-18T01:53:57.106Z,9.77
2017-10-18T01:56:23.436Z,8.57
2017-10-18T01:58:49.698Z,7.77
2017-10-18T02:01:16.029Z,8.20
2017-10-18T02:03:42.375Z,7.27
2017-10-18T02:06:08.650Z,7.60
2017-10-18T02:08:34.906Z,11.47
2017-10-18T02:11:01.955Z,8.80
2017-10-18T02:13:28.970Z,8.63
2017-10-18T02:15:55.240Z,8.20
2017-10-18T02:18:22.291Z,9.60
2017-10-18T02:20:49.301Z,8.50
2017-10-18T02:23:15.564Z,8.77
2017-10-18T02:25:42.593Z,7.57
2017-10-18T02:28:08.849Z,8.47
2017-10-18T02:30:35.870Z,7.23
2017-10-18T02:33:02.257Z,8.90
2017-10-18T02:35:29.269Z,7.40
2017-10-18T02:37:55.524Z,10.87
2017-10-18T02:40:22.574Z,7.30
2017-10-18T02:42:48.867Z,8.43
2017-10-18T02:45:15.115Z,7.93
2017-10-18T02:47:42.914Z,7.57
2017-10-18T02:50:10.682Z,8.20
2017-10-18T02:52:38.448Z,8.93
2017-10-18T02:55:04.754Z,9.00
2017-10-18T02:57:31.076Z,8.67
2017-10-18T02:59:57.356Z,8.60
2017-10-18T03:02:25.478Z,9.40
2017-10-18T03:04:51.753Z,8.27
2017-10-18T03:07:18.018Z,9.30
2017-10-18T03:09:44.314Z,8.43
2017-10-18T03:12:10.605Z,8.73
2017-10-18T03:14:37.633Z,8.30
2017-10-18T03:17:04.666Z,8.53
2017-10-18T03:19:30.938Z,12.47
2017-10-18T03:21:57.178Z,8.93
2017-10-18T03:24:24.239Z,11.53
2017-10-18T03:26:51.386Z,10.27
2017-10-18T03:29:17.923Z,8.60
2017-10-18T03:31:44.250Z,8.83
2017-10-18T03:34:10.514Z,9.93
2017-10-18T03:36:37.537Z,8.90
2017-10-18T03:39:03.873Z,8.93
2017-10-18T03:41:30.184Z,9.97
2017-10-18T03:43:56.477Z,9.90
2017-10-18T03:46:22.780Z,10.50
2017-10-18T03:48:50.512Z,10.07
2017-10-18T03:51:17.514Z,9.27
2017-10-18T03:53:44.581Z,8.60
2017-10-18T03:56:11.583Z,8.97
2017-10-18T03:58:37.833Z,9.90
2017-10-18T04:01:04.864Z,8.43
2017-10-18T04:03:31.367Z,8.63
2017-10-18T04:05:58.381Z,8.03
2017-10-18T04:08:25.441Z,9.97
2017-10-18T04:10:53.157Z,7.80
2017-10-18T04:13:19.421Z,9.50
2017-10-18T04:15:45.865Z,10.90
2017-10-18T04:18:12.175Z,8.73
2017-10-18T04:20:38.602Z,9.23
2017-10-18T04:23:06.010Z,10.63
2017-10-18T04:25:32.318Z,9.87
2017-10-18T04:27:58.595Z,12.73
2017-10-18T04:30:24.909Z,12.17
2017-10-18T04:32:51.205Z,12.33
2017-10-18T04:35:17.513Z,10.97
2017-10-18T04:37:44.556Z,9.73
2017-10-18T04:40:11.613Z,12.07
2017-10-18T04:42:37.942Z,10.10
2017-10-18T04:45:04.258Z,11.00
2017-10-18T04:47:30.533Z,11.07
2017-10-18T04:49:56.876Z,12.90
2017-10-18T04:52:23.886Z,10.23
2017-10-18T04:54:50.160Z,12.03
2017-10-18T04:57:16.423Z,13.20
2017-10-18T04:59:42.677Z,10.70
2017-10-18T05:02:08.986Z,10.10
2017-10-18T05:04:35.523Z,8.73
2017-10-18T05:07:01.882Z,9.03
2017-10-18T05:09:28.229Z,10.30
2017-10-18T05:11:54.598Z,10.23
2017-10-18T05:14:20.922Z,10.57
2017-10-18T05:16:47.251Z,11.80
2017-10-18T05:19:14.337Z,11.77
2017-10-18T05:21:40.714Z,11.77
2017-10-18T05:24:07.011Z,12.30
2017-10-18T05:26:34.061Z,11.83
2017-10-18T05:29:01.101Z,11.00
2017-10-18T05:31:28.825Z,12.00
2017-10-18T05:33:55.093Z,12.40
2017-10-18T05:36:21.426Z,13.10
2017-10-18T05:38:47.718Z,12.17
2017-10-18T05:41:14.721Z,10.83
2017-10-18T05:43:41.006Z,12.77
2017-10-18T05:46:07.334Z,9.43
2017-10-18T05:48:41.469Z,11.50
2017-10-18T05:51:07.768Z,10.47
2017-10-18T05:53:34.773Z,13.60
2017-10-18T05:56:01.138Z,11.23
2017-10-18T05:58:28.905Z,10.73
2017-10-18T06:00:56.652Z,15.10
2017-10-18T06:03:22.922Z,13.27
2017-10-18T06:05:56.286Z,11.53
2017-10-18T06:08:22.582Z,10.60
2017-10-18T06:10:49.589Z,11.47
2017-10-18T06:13:15.962Z,12.70
2017-10-18T06:15:43.004Z,11.57
2017-10-18T06:18:09.298Z,11.03
2017-10-18T06:20:35.650Z,13.50
2017-10-18T06:23:01.954Z,11.20
2017-10-18T06:25:28.255Z,9.60
2017-10-18T06:27:54.660Z,11.07
2017-10-18T06:30:20.962Z,12.90
2017-10-18T06:32:47.224Z,12.40
2017-10-18T06:35:13.478Z,11.30
2017-10-18T06:37:39.794Z,12.23
2017-10-18T06:40:06.110Z,13.57
2017-10-18T06:42:32.361Z,12.67
2017-10-18T06:44:58.654Z,12.20
2017-10-18T06:47:25.666Z,12.50
2017-10-18T06:49:51.971Z,13.33
2017-10-18T06:52:18.281Z,12.40
2017-10-18T06:54:45.322Z,14.50
2017-10-18T06:57:12.349Z,12.03
2017-10-18T06:59:38.615Z,14.00
2017-10-18T07:02:05.601Z,10.67
2017-10-18T07:04:31.870Z,12.23
2017-10-18T07:06:58.285Z,10.73
2017-10-18T07:09:24.581Z,11.40
2017-10-18T07:11:51.630Z,11.27
2017-10-18T07:14:18.755Z,11.30
2017-10-18T07:16:45.070Z,11.03
2017-10-18T07:19:11.328Z,10.30
2017-10-18T07:21:37.618Z,12.00
2017-10-18T07:24:03.887Z,10.70
2017-10-18T07:26:30.129Z,13.67
2017-10-18T07:28:56.426Z,11.83
2017-10-18T07:31:22.663Z,12.17
2017-10-18T07:33:48.959Z,12.37
2017-10-18T07:36:15.255Z,12.37
2017-10-18T07:38:41.567Z,12.07
2017-10-18T07:41:07.881Z,14.73
2017-10-18T07:43:34.970Z,15.03
2017-10-18T07:46:01.234Z,18.10
2017-10-18T07:48:27.484Z,55.47
2017-10-18T07:50:54.558Z,24.90
2017-10-18T07:53:21.586Z,21.97
2017-10-18T07:55:49.343Z,20.23
2017-10-18T07:58:15.680Z,16.17
2017-10-18T08:00:41.957Z,15.77
2017-10-18T08:03:09.006Z,19.40
2017-10-18T08:05:36.083Z,15.07
2017-10-18T08:08:02.521Z,14.50
2017-10-18T08:10:28.823Z,14.10
2017-10-18T08:12:55.113Z,12.77
2017-10-18T08:15:21.405Z,13.13
2017-10-18T08:17:48.435Z,13.13
2017-10-18T08:20:15.479Z,15.03
2017-10-18T08:22:41.788Z,14.40
2017-10-18T08:25:20.508Z,13.40
2017-10-18T08:27:59.303Z,12.20
2017-10-18T08:30:26.461Z,11.83
2017-10-18T08:32:53.462Z,11.87
2017-10-18T08:35:19.679Z,13.67
2017-10-18T08:37:45.941Z,14.57
2017-10-18T08:40:12.214Z,12.90
2017-10-18T08:42:39.203Z,13.00
2017-10-18T08:45:05.475Z,12.80
2017-10-18T08:47:31.697Z,13.87
2017-10-18T08:49:57.933Z,11.73
2017-10-18T08:52:24.202Z,15.57
2017-10-18T08:54:50.433Z,13.67
2017-10-18T08:57:16.666Z,14.60
2017-10-18T08:59:42.952Z,11.60
2017-10-18T09:02:09.208Z,11.60
2017-10-18T09:04:35.426Z,13.03
2017-10-18T09:07:01.690Z,13.20
2017-10-18T09:09:28.958Z,10.80
2017-10-18T09:11:55.193Z,12.80
2017-10-18T09:14:22.961Z,13.43
2017-10-18T09:16:49.945Z,12.70
2017-10-18T09:19:16.194Z,11.70
2017-10-18T09:21:42.453Z,11.67
2017-10-18T09:24:08.724Z,11.20
2017-10-18T09:26:35.738Z,12.87
2017-10-18T09:29:02.028Z,14.20
2017-10-18T09:31:29.006Z,12.60
2017-10-18T09:33:55.232Z,11.20
2017-10-18T09:36:21.477Z,13.23
2017-10-18T09:38:47.737Z,13.17
2017-10-18T09:41:13.974Z,12.03
2017-10-18T09:43:40.229Z,13.70
2017-10-18T09:46:06.464Z,13.07
2017-10-18T09:48:34.188Z,14.20
2017-10-18T09:51:00.435Z,15.30
2017-10-18T09:53:26.671Z,14.40
2017-10-18T09:55:52.904Z,15.70
2017-10-18T09:58:19.129Z,15.70
2017-10-18T10:00:45.364Z,15.77
2017-10-18T10:03:11.589Z,15.10
2017-10-18T10:05:37.872Z,13.77
2017-10-18T10:08:04.127Z,15.33
2017-10-18T10:10:31.181Z,14.30
2017-10-18T10:12:58.243Z,12.97
2017-10-18T10:15:25.229Z,14.03
2017-10-18T10:17:51.716Z,13.87
2017-10-18T10:20:17.953Z,13.17
2017-10-18T10:22:44.218Z,12.07
2017-10-18T10:25:10.466Z,12.90
2017-10-18T10:27:36.729Z,11.00
2017-10-18T10:30:02.955Z,10.37
2017-10-18T10:32:29.238Z,13.33
2017-10-18T10:34:55.453Z,12.30
2017-10-18T10:37:21.681Z,9.43
2017-10-18T10:39:47.919Z,9.00
2017-10-18T10:42:14.206Z,10.17
2017-10-18T10:44:40.445Z,9.20
2017-10-18T10:47:06.662Z,8.30
2017-10-18T10:49:33.642Z,8.90
2017-10-18T10:51:59.870Z,9.10
2017-10-18T10:54:26.109Z,9.13
2017-10-18T10:56:52.350Z,8.53
2017-10-18T10:59:18.605Z,8.00
2017-10-18T11:01:44.827Z,8.97
2017-10-18T11:04:11.107Z,9.10
2017-10-18T11:06:38.095Z,8.73
2017-10-18T11:09:04.359Z,9.47
2017-10-18T11:11:30.682Z,7.67
2017-10-18T11:13:56.923Z,8.43
2017-10-18T11:16:23.133Z,10.90
2017-10-18T11:18:49.378Z,9.90
2017-10-18T11:21:15.599Z,8.33
2017-10-18T11:23:41.826Z,8.20
2017-10-18T11:26:08.093Z,8.00
2017-10-18T11:28:34.325Z,7.67
2017-10-18T11:31:00.540Z,7.70
2017-10-18T11:33:26.777Z,7.17
2017-10-18T11:35:52.995Z,7.13
2017-10-18T11:38:19.229Z,8.73
2017-10-18T11:40:45.463Z,6.60
2017-10-18T11:43:11.762Z,6.30
2017-10-18T11:45:37.966Z,7.77
2017-10-18T11:48:04.231Z,6.13
2017-10-18T11:50:30.464Z,8.23
2017-10-18T11:52:58.175Z,9.03
2017-10-18T11:55:24.469Z,7.40
2017-10-18T11:57:52.190Z,6.90
2017-10-18T12:00:18.433Z,7.20
2017-10-18T12:02:44.729Z,8.50
2017-10-18T12:05:11.700Z,7.47
2017-10-18T12:07:37.927Z,6.80
2017-10-18T12:10:04.919Z,6.43
2017-10-18T12:12:31.403Z,4.97
2017-10-18T12:14:58.351Z,5.23
2017-10-18T12:17:24.633Z,5.37
2017-10-18T12:19:50.878Z,6.00
2017-10-18T12:22:17.105Z,5.43
2017-10-18T12:24:43.516Z,7.03
2017-10-18T12:27:09.839Z,6.43
2017-10-18T12:29:36.815Z,6.33
2017-10-18T12:32:03.076Z,5.77
2017-10-18T12:34:29.302Z,7.07
2017-10-18T12:36:55.642Z,6.93
2017-10-18T12:39:21.950Z,6.00
2017-10-18T12:41:48.166Z,7.17
2017-10-18T12:44:15.151Z,6.00
2017-10-18T12:46:41.426Z,5.43
2017-10-18T12:49:07.653Z,5.00
2017-10-18T12:51:33.903Z,5.23
2017-10-18T12:54:00.867Z,4.10
2017-10-18T12:56:27.102Z,4.43
2017-10-18T12:58:54.212Z,4.80
2017-10-18T13:01:20.482Z,4.63
2017-10-18T13:03:46.702Z,4.30
2017-10-18T13:06:12.937Z,5.00
2017-10-18T13:08:39.206Z,4.30
2017-10-18T13:11:06.179Z,4.47
2017-10-18T13:13:33.403Z,4.43
2017-10-18T13:15:59.686Z,3.70
2017-10-18T13:18:25.913Z,3.60
2017-10-18T13:20:52.137Z,4.17
2017-10-18T13:23:18.377Z,4.10
2017-10-18T13:25:44.614Z,6.00
2017-10-18T13:28:10.858Z,4.93
2017-10-18T13:30:37.114Z,5.00
2017-10-18T13:33:03.331Z,4.33
2017-10-18T13:35:29.542Z,3.60
2017-10-18T13:37:56.530Z,3.70
2017-10-18T13:40:22.782Z,5.07
2017-10-18T13:42:49.802Z,3.37
2017-10-18T13:45:16.098Z,4.50
2017-10-18T13:47:43.076Z,5.83
2017-10-18T13:50:09.298Z,5.60
2017-10-18T13:52:36.317Z,5.10
2017-10-18T13:55:03.308Z,4.60
2017-10-18T13:57:29.533Z,5.00
2017-10-18T13:59:56.505Z,3.17
2017-10-18T14:02:22.748Z,3.87
2017-10-18T14:04:48.978Z,4.93
2017-10-18T14:07:15.223Z,4.10
2017-10-18T14:09:41.501Z,4.40
2017-10-18T14:12:07.742Z,4.90
2017-10-18T14:14:34.217Z,4.87
2017-10-18T14:17:00.483Z,5.20
2017-10-18T14:19:26.739Z,5.27
2017-10-18T14:21:53.741Z,5.17
2017-10-18T14:24:19.982Z,5.20
2017-10-18T14:26:46.214Z,4.40
2017-10-18T14:29:12.499Z,4.33
2017-10-18T14:31:38.730Z,3.80
2017-10-18T14:34:04.970Z,5.40
2017-10-18T14:36:32.686Z,4.23
2017-10-18T14:38:59.711Z,5.10
2017-10-18T14:41:26.673Z,4.07
2017-10-18T14:43:53.646Z,4.20
2017-10-18T14:46:19.883Z,3.77
2017-10-18T14:48:46.113Z,4.70
2017-10-18T14:51:12.350Z,5.60
2017-10-18T14:53:38.551Z,5.93
2017-10-18T14:56:05.527Z,9.10
2017-10-18T14:58:31.769Z,7.90
2017-10-18T15:00:57.997Z,6.13
2017-10-18T15:03:24.182Z,6.37
2017-10-18T15:05:50.476Z,5.70
2017-10-18T15:08:16.694Z,6.13
2017-10-18T15:10:42.933Z,6.20
2017-10-18T15:13:09.177Z,4.90
2017-10-18T15:15:35.517Z,6.83
2017-10-18T15:18:01.779Z,7.00
2017-10-18T15:20:28.005Z,6.20
2017-10-18T15:22:54.222Z,6.03
2017-10-18T15:25:20.470Z,6.20
2017-10-18T15:27:46.746Z,6.40
2017-10-18T15:30:12.980Z,5.50
2017-10-18T15:32:40.018Z,5.93
2017-10-18T15:35:06.342Z,5.83
2017-10-18T15:37:32.566Z,7.20
2017-10-18T15:39:58.811Z,8.30
2017-10-18T15:42:25.070Z,8.50
2017-10-18T15:44:51.301Z,6.80
2017-10-18T15:47:17.537Z,7.10
2017-10-18T15:49:43.791Z,6.63
2017-10-18T15:52:10.782Z,5.10
2017-10-18T15:54:37.030Z,9.37
2017-10-18T15:57:03.296Z,7.97
2017-10-18T15:59:31.010Z,7.30
2017-10-18T16:01:57.403Z,5.43
2017-10-18T16:04:24.562Z,7.33
2017-10-18T16:06:50.767Z,8.70
2017-10-18T16:09:17.010Z,10.10
2017-10-18T16:11:43.380Z,7.90
2017-10-18T16:14:10.352Z,10.90
2017-10-18T16:16:37.590Z,11.63
2017-10-18T16:19:03.868Z,8.37
2017-10-18T16:21:30.146Z,8.50
2017-10-18T16:23:57.190Z,7.00
2017-10-18T16:26:23.461Z,7.40
2017-10-18T16:28:49.690Z,8.10
2017-10-18T16:31:15.970Z,7.47
2017-10-18T16:33:43.746Z,8.50
2017-10-18T16:36:10.729Z,7.57
2017-10-18T16:38:37.782Z,7.60
2017-10-18T16:41:05.538Z,8.40
2017-10-18T16:43:31.769Z,11.47
2017-10-18T16:45:59.534Z,11.33
2017-10-18T16:48:25.827Z,12.73
2017-10-18T16:50:52.089Z,17.67
2017-10-18T16:53:18.350Z,14.77
2017-10-18T16:55:44.649Z,17.83
2017-10-18T16:58:10.951Z,15.57
2017-10-18T17:03:12.381Z,19.50
2017-10-18T17:05:38.641Z,19.00
2017-10-18T17:08:04.917Z,13.43
2017-10-18T17:10:31.249Z,11.43
2017-10-18T17:12:57.478Z,13.33
2017-10-18T17:15:24.447Z,13.70
2017-10-18T17:17:50.966Z,10.67
2017-10-18T17:20:17.928Z,10.67
2017-10-18T17:22:44.182Z,16.03
2017-10-18T17:25:10.421Z,9.83
2017-10-18T17:27:36.653Z,9.03
2017-10-18T17:30:02.874Z,8.93
2017-10-18T17:32:29.344Z,9.57
2017-10-18T17:34:55.570Z,9.70
2017-10-18T17:37:21.789Z,10.07
2017-10-18T17:39:48.146Z,9.20
2017-10-18T17:42:14.387Z,8.90
2017-10-18T17:44:40.634Z,8.60
2017-10-18T17:47:06.927Z,7.60
2017-10-18T17:49:33.162Z,7.47
2017-10-18T17:51:59.398Z,8.50
2017-10-18T17:54:25.665Z,9.60
2017-10-18T17:56:51.904Z,9.47
2017-10-18T17:59:18.210Z,10.47
2017-10-18T18:01:44.769Z,8.70
2017-10-18T18:04:11.805Z,9.97
2017-10-18T18:06:38.220Z,9.50
2017-10-18T18:09:04.550Z,8.67
2017-10-18T18:11:30.826Z,8.20
2017-10-18T18:13:57.246Z,9.00
2017-10-18T18:16:24.362Z,7.93
2017-10-18T18:18:51.494Z,8.50
2017-10-18T18:21:17.778Z,9.70
2017-10-18T18:23:44.220Z,11.27
2017-10-18T18:26:11.278Z,15.03
2017-10-18T18:28:37.516Z,11.60
2017-10-18T18:31:03.805Z,12.93
2017-10-18T18:33:30.042Z,14.00
2017-10-18T18:35:57.026Z,14.87
2017-10-18T18:38:23.297Z,11.90
2017-10-18T18:40:49.670Z,10.00
2017-10-18T18:43:16.111Z,9.10
2017-10-18T18:45:43.174Z,11.17
2017-10-18T18:48:09.425Z,12.20
2017-10-18T18:50:35.646Z,9.73
2017-10-18T18:53:01.952Z,11.40
2017-10-18T18:55:28.943Z,10.23
2017-10-18T18:57:55.940Z,10.73
2017-10-18T19:00:22.209Z,9.27
2017-10-18T19:02:49.933Z,10.97
2017-10-18T19:05:16.596Z,10.50
2017-10-18T19:07:42.896Z,10.17
2017-10-18T19:10:09.122Z,9.60
2017-10-18T19:12:36.145Z,11.50
2017-10-18T19:15:02.519Z,8.57
2017-10-18T19:17:28.773Z,11.10
2017-10-18T19:19:55.134Z,9.73
2017-10-18T19:22:23.042Z,10.50
2017-10-18T19:24:49.285Z,11.10
2017-10-18T19:27:16.278Z,11.03
2017-10-18T19:29:42.709Z,10.97
2017-10-18T19:32:09.031Z,11.67
2017-10-18T19:34:35.316Z,12.77
2017-10-18T19:37:01.584Z,10.20
2017-10-18T19:39:28.606Z,10.37
2017-10-18T19:41:54.896Z,11.13
2017-10-18T19:44:21.227Z,9.90
2017-10-18T19:46:47.502Z,11.50
2017-10-18T19:49:13.878Z,9.73
2017-10-18T19:51:40.146Z,9.20
2017-10-18T19:54:06.378Z,9.73
2017-10-18T19:56:32.644Z,10.43
2017-10-18T19:58:59.674Z,10.90
2017-10-18T20:01:25.919Z,11.67
2017-10-18T20:03:52.153Z,10.13
2017-10-18T20:06:18.399Z,9.93
2017-10-18T20:08:45.402Z,11.27
2017-10-18T20:11:11.701Z,10.67
2017-10-18T20:13:38.718Z,11.10
2017-10-18T20:16:04.979Z,13.10
2017-10-18T20:18:31.989Z,12.03
2017-10-18T20:20:58.715Z,10.57
2017-10-18T20:23:24.990Z,11.00
2017-10-18T20:25:51.256Z,11.40
2017-10-18T20:28:18.245Z,12.10
2017-10-18T20:30:45.241Z,10.20
2017-10-18T20:33:11.504Z,10.50
2017-10-18T20:35:37.847Z,11.17
2017-10-18T20:38:04.832Z,11.10
2017-10-18T20:40:31.106Z,11.47
2017-10-18T20:42:58.861Z,11.23
2017-10-18T20:45:25.146Z,11.20
2017-10-18T20:47:52.162Z,10.00
2017-10-18T20:50:18.435Z,13.20
2017-10-18T20:52:45.420Z,11.13
2017-10-18T20:55:11.662Z,11.50
2017-10-18T20:57:37.960Z,12.00
2017-10-18T21:00:04.282Z,11.07
2017-10-18T21:02:30.638Z,11.07
2017-10-18T21:04:57.658Z,10.63
2017-10-18T21:07:23.910Z,11.57
2017-10-18T21:09:50.263Z,10.13
2017-10-18T21:12:17.274Z,10.53
2017-10-18T21:14:45.076Z,10.00
2017-10-18T21:17:11.575Z,12.70
2017-10-18T21:19:37.812Z,11.27
2017-10-18T21:22:04.127Z,10.63
2017-10-18T21:24:30.373Z,10.00
2017-10-18T21:26:56.606Z,10.93
2017-10-18T21:29:22.845Z,10.03
2017-10-18T21:31:49.108Z,10.07
2017-10-18T21:34:15.905Z,11.77
2017-10-18T21:36:42.181Z,11.33
2017-10-18T21:39:09.961Z,10.13
2017-10-18T21:41:36.282Z,11.00
2017-10-18T21:44:02.550Z,12.17
2017-10-18T21:46:28.825Z,11.50
2017-10-18T21:48:55.085Z,11.57
2017-10-18T21:51:21.349Z,10.87
2017-10-18T21:53:47.603Z,11.27
2017-10-18T21:56:14.610Z,9.80
2017-10-18T21:58:40.840Z,10.03
2017-10-18T22:01:07.059Z,10.37
2017-10-18T22:03:33.346Z,11.20
2017-10-18T22:05:59.603Z,10.70
2017-10-18T22:08:26.576Z,12.00
2017-10-18T22:10:52.822Z,9.60
2017-10-18T22:13:19.074Z,9.70
2017-10-18T22:15:45.306Z,10.07
2017-10-18T22:18:11.567Z,10.33
2017-10-18T22:20:37.859Z,12.17
2017-10-18T22:23:04.244Z,11.30
2017-10-18T22:25:30.485Z,11.30
2017-10-18T22:27:56.744Z,9.90
2017-10-18T22:30:22.984Z,10.60
2017-10-18T22:32:49.237Z,12.43
2017-10-18T22:35:15.473Z,9.70
2017-10-18T22:37:41.678Z,11.63
2017-10-18T22:40:09.624Z,10.47
2017-10-18T22:42:36.620Z,10.83
2017-10-18T22:45:02.878Z,10.17
2017-10-18T22:47:29.138Z,9.70
2017-10-18T22:49:56.153Z,9.37
2017-10-18T22:52:22.404Z,10.80
2017-10-18T22:54:48.663Z,10.77
2017-10-18T22:57:16.382Z,11.33
2017-10-18T22:59:42.647Z,10.63
2017-10-18T23:02:08.882Z,11.17
2017-10-18T23:04:35.133Z,10.93
2017-10-18T23:07:02.859Z,11.50
2017-10-18T23:09:29.094Z,10.47
2017-10-18T23:11:55.312Z,10.63
2017-10-18T23:14:21.565Z,11.63
2017-10-18T23:16:47.809Z,10.90
2017-10-18T23:19:14.067Z,11.40
2017-10-18T23:21:40.294Z,11.43
2017-10-18T23:24:07.494Z,10.90
2017-10-18T23:26:34.489Z,9.87
2017-10-18T23:29:00.751Z,12.07
2017-10-18T23:31:28.490Z,10.23
2017-10-18T23:33:54.717Z,11.77
2017-10-18T23:36:20.970Z,10.80
2017-10-18T23:38:47.220Z,10.70
2017-10-18T23:41:13.487Z,10.67
2017-10-18T23:43:40.446Z,10.07
2017-10-18T23:46:07.406Z,10.97
2017-10-18T23:48:33.649Z,10.30
2017-10-18T23:50:59.881Z,10.97
2017-10-18T23:53:26.169Z,11.13
2017-10-18T23:55:53.158Z,11.33
2017-10-18T23:58:19.395Z,10.23
